Time;durP1;ratioP1;P1;durP2;ratioP2;P2;SDS_P1;SDS_P2;PMS_P1;PMS_P2;Temp;Humidity;BMP_temperature;BMP_pressure;BME280_temperature;BME280_humidity;BME280_pressure;Samples;Min_cycle;Max_cycle;Signal;HPM_P1;HPM_P2
2022/05/27 00:01:18;;;;;;;6.82;1.50;;;15.30;59.50;;;;;;5099103;28;20047;-59
2022/05/27 00:03:44;;;;;;;2.22;1.20;;;15.20;58.80;;;;;;5103574;28;20031;-58
2022/05/27 00:06:10;;;;;;;3.50;1.30;;;15.20;58.90;;;;;;5103433;28;20032;-59
2022/05/27 00:08:36;;;;;;;3.15;1.60;;;15.20;58.70;;;;;;5102337;28;20035;-59
2022/05/27 00:11:04;;;;;;;6.30;2.00;;;15.20;58.90;;;;;;5108296;28;20085;-59
2022/05/27 00:13:30;;;;;;;5.75;2.00;;;15.20;59.20;;;;;;5099103;28;20036;-59
2022/05/27 00:15:56;;;;;;;3.55;2.28;;;15.20;59.30;;;;;;5102454;28;20560;-59
2022/05/27 00:18:22;;;;;;;5.63;2.38;;;15.20;59.30;;;;;;5103207;28;20020;-60
2022/05/27 00:20:48;;;;;;;4.78;1.60;;;15.20;59.30;;;;;;5100161;28;20016;-60
2022/05/27 00:23:15;;;;;;;2.50;1.52;;;15.20;59.40;;;;;;5093782;28;20590;-59
2022/05/27 00:25:41;;;;;;;4.57;1.73;;;15.20;59.50;;;;;;5098009;28;20084;-60
2022/05/27 00:28:07;;;;;;;10.65;1.70;;;15.20;59.50;;;;;;5100918;28;20035;-60
2022/05/27 00:30:34;;;;;;;3.40;1.30;;;15.20;59.50;;;;;;5102999;28;20025;-59
2022/05/27 00:32:59;;;;;;;1.35;1.02;;;15.20;59.30;;;;;;5104542;28;20209;-59
2022/05/27 00:35:25;;;;;;;2.35;1.10;;;15.20;59.30;;;;;;5096677;28;20032;-59
2022/05/27 00:37:51;;;;;;;2.78;1.30;;;15.20;59.30;;;;;;5107830;28;20027;-59
2022/05/27 00:40:19;;;;;;;3.92;1.00;;;15.20;59.20;;;;;;5107334;28;20040;-59
2022/05/27 00:42:46;;;;;;;1.55;1.00;;;15.10;59.30;;;;;;5103034;28;20028;-59
2022/05/27 00:45:21;;;;;;;3.15;1.00;;;15.10;59.40;;;;;;5105812;28;20032;-59
2022/05/27 00:47:51;;;;;;;2.42;1.35;;;15.10;60.00;;;;;;5102241;28;20024;-59
2022/05/27 00:50:20;;;;;;;4.57;1.08;;;15.00;59.70;;;;;;5097439;28;20048;-58
2022/05/27 00:52:47;;;;;;;0.80;0.70;;;15.00;59.80;;;;;;5105487;28;20039;-60
2022/05/27 00:55:21;;;;;;;2.03;1.05;;;15.00;59.90;;;;;;5097672;28;20074;-59
2022/05/27 00:57:52;;;;;;;1.67;1.02;;;14.90;60.30;;;;;;5098110;28;20021;-59
2022/05/27 01:00:24;;;;;;;1.52;1.10;;;14.90;60.10;;;;;;5104389;28;20036;-59
2022/05/27 01:02:53;;;;;;;1.73;0.80;;;14.90;60.60;;;;;;5096181;28;20092;-59
2022/05/27 01:05:21;;;;;;;2.05;1.05;;;14.90;60.00;;;;;;5102730;28;20083;-59
2022/05/27 01:07:47;;;;;;;1.80;0.90;;;14.90;60.30;;;;;;5110074;28;20032;-59
2022/05/27 01:10:16;;;;;;;2.50;0.93;;;14.90;60.40;;;;;;5107954;28;20754;-59
2022/05/27 01:12:42;;;;;;;3.05;1.00;;;14.90;60.90;;;;;;5111766;28;20085;-59
2022/05/27 01:15:39;;;;;;;6.05;1.25;;;14.90;61.10;;;;;;5096033;28;20045;-59
2022/05/27 01:18:16;;;;;;;1.70;1.10;;;14.80;62.00;;;;;;5099486;28;20059;-59
2022/05/27 01:21:07;;;;;;;2.67;1.13;;;14.80;61.70;;;;;;5092715;28;20079;-59
2022/05/27 01:24:03;;;;;;;2.85;0.93;;;14.80;61.80;;;;;;5095404;28;20043;-59
2022/05/27 01:26:59;;;;;;;1.15;0.90;;;14.80;61.90;;;;;;5093780;28;20047;-59
2022/05/27 01:29:54;;;;;;;1.75;0.90;;;14.70;61.50;;;;;;5103368;28;20426;-61
2022/05/27 01:32:40;;;;;;;1.65;0.98;;;14.70;61.30;;;;;;5099511;28;20020;-59
2022/05/27 01:35:36;;;;;;;1.45;0.90;;;14.70;61.30;;;;;;5099507;28;20040;-59
2022/05/27 01:38:33;;;;;;;2.40;1.23;;;14.70;61.20;;;;;;5095764;28;20021;-59
2022/05/27 01:41:11;;;;;;;5.28;1.10;;;14.70;61.40;;;;;;5115457;28;20040;-60
2022/05/27 01:43:41;;;;;;;2.13;1.10;;;14.60;61.20;;;;;;5110877;28;20035;-60
2022/05/27 01:46:29;;;;;;;2.13;1.00;;;14.60;60.80;;;;;;5106158;28;20064;-59
2022/05/27 01:49:18;;;;;;;1.63;0.90;;;14.60;61.40;;;;;;5095400;28;20047;-59
2022/05/27 01:51:52;;;;;;;1.13;0.90;;;14.60;61.50;;;;;;5104442;28;20024;-59
2022/05/27 01:54:35;;;;;;;1.17;0.98;;;14.50;60.80;;;;;;5103246;28;20499;-59
2022/05/27 01:57:12;;;;;;;1.48;0.90;;;14.50;61.60;;;;;;5105507;28;20063;-59
2022/05/27 01:59:50;;;;;;;2.00;1.02;;;14.50;61.00;;;;;;5095721;28;20024;-59
2022/05/27 02:02:21;;;;;;;1.85;1.00;;;14.50;60.70;;;;;;5096324;28;20059;-59
2022/05/27 02:04:58;;;;;;;1.50;1.00;;;14.40;61.00;;;;;;5096492;28;20544;-59
2022/05/27 02:07:42;;;;;;;2.15;1.00;;;14.40;61.50;;;;;;5106947;28;20055;-61
2022/05/27 02:10:22;;;;;;;1.48;0.90;;;14.40;61.60;;;;;;5100623;28;20016;-59
2022/05/27 02:12:54;;;;;;;3.45;1.10;;;14.40;61.70;;;;;;5095597;28;20044;-59
2022/05/27 02:15:31;;;;;;;5.38;1.20;;;14.30;61.10;;;;;;5121026;28;20471;-59
2022/05/27 02:18:03;;;;;;;0.90;0.77;;;14.30;61.50;;;;;;5103050;28;20016;-59
2022/05/27 02:20:38;;;;;;;3.72;1.10;;;14.30;61.30;;;;;;5101816;28;20043;-59
2022/05/27 02:23:35;;;;;;;1.40;1.00;;;14.30;61.50;;;;;;5099403;28;20464;-59
2022/05/27 02:26:06;;;;;;;4.25;1.20;;;14.30;62.40;;;;;;5096114;28;20060;-59
2022/05/27 02:28:39;;;;;;;4.03;1.10;;;14.20;61.30;;;;;;5049207;28;20405;-59
2022/05/27 02:31:16;;;;;;;3.45;1.42;;;14.20;61.70;;;;;;5103082;28;20043;-59
2022/05/27 02:36:40;;;;;;;1.10;1.00;;;14.10;61.90;;;;;;5103479;28;20082;-59
2022/05/27 02:39:07;;;;;;;2.97;1.10;;;14.10;61.70;;;;;;5105725;28;20472;-60
2022/05/27 02:42:26;;;;;;;1.70;1.00;;;14.10;61.60;;;;;;5105410;28;20102;-60
2022/05/27 02:45:06;;;;;;;1.10;0.93;;;14.10;62.60;;;;;;5065955;28;20044;-60
2022/05/27 02:47:38;;;;;;;1.85;1.20;;;14.00;61.90;;;;;;5106602;28;20035;-59
2022/05/27 02:50:28;;;;;;;1.67;1.00;;;14.00;62.00;;;;;;5104759;28;20062;-61
2022/05/27 02:53:11;;;;;;;2.35;0.88;;;14.00;62.00;;;;;;5101584;28;20027;-61
2022/05/27 02:56:04;;;;;;;5.15;0.90;;;13.90;62.20;;;;;;5098388;28;20029;-60
2022/05/27 02:58:31;;;;;;;1.38;1.00;;;13.90;62.10;;;;;;5101801;28;20028;-60
2022/05/27 03:00:57;;;;;;;3.55;1.63;;;13.90;61.60;;;;;;5103201;28;20035;-61
2022/05/27 03:03:23;;;;;;;1.00;0.90;;;13.80;61.80;;;;;;5099582;28;20028;-61
2022/05/27 03:06:01;;;;;;;1.65;1.05;;;13.80;61.90;;;;;;5105154;28;20055;-59
2022/05/27 03:08:29;;;;;;;0.95;0.90;;;13.70;62.10;;;;;;5106690;28;20466;-59
2022/05/27 03:11:18;;;;;;;2.88;1.00;;;13.70;62.30;;;;;;5097525;28;20065;-60
2022/05/27 03:13:52;;;;;;;1.73;0.82;;;13.70;63.40;;;;;;5098042;28;20036;-59
2022/05/27 03:16:31;;;;;;;1.63;0.90;;;13.60;62.30;;;;;;5099204;28;20024;-59
2022/05/27 03:18:56;;;;;;;1.55;1.00;;;13.60;63.20;;;;;;5101599;28;20020;-59
2022/05/27 03:21:57;;;;;;;1.65;0.85;;;13.60;62.40;;;;;;5096233;28;20035;-59
2022/05/27 03:25:02;;;;;;;1.55;1.02;;;13.60;63.10;;;;;;5098179;28;20641;-61
2022/05/27 03:27:30;;;;;;;3.40;1.08;;;13.60;63.40;;;;;;5101959;28;20044;-59
2022/05/27 03:30:18;;;;;;;2.22;1.33;;;13.60;62.40;;;;;;5103097;28;20032;-61
2022/05/27 03:32:52;;;;;;;1.77;1.00;;;13.50;63.10;;;;;;5088296;28;20544;-60
2022/05/27 03:35:30;;;;;;;2.00;0.93;;;13.50;62.70;;;;;;5107165;28;20716;-61
2022/05/27 03:38:11;;;;;;;2.45;1.08;;;13.50;62.20;;;;;;5102792;28;20028;-60
2022/05/27 03:40:46;;;;;;;3.53;1.00;;;13.40;63.20;;;;;;5103376;28;20031;-60
2022/05/27 03:43:13;;;;;;;3.03;1.02;;;13.40;63.10;;;;;;5094758;28;20032;-59
2022/05/27 03:45:54;;;;;;;1.30;0.80;;;13.40;62.80;;;;;;5097810;28;20024;-59
2022/05/27 03:48:20;;;;;;;3.92;0.90;;;13.40;63.70;;;;;;5108685;28;20028;-58
2022/05/27 03:50:48;;;;;;;2.05;0.98;;;13.40;63.00;;;;;;5100476;28;20024;-59
2022/05/27 03:53:14;;;;;;;1.10;1.00;;;13.40;63.10;;;;;;5094622;28;20020;-61
2022/05/27 03:55:44;;;;;;;2.22;1.00;;;13.40;63.10;;;;;;5097353;28;20555;-59
2022/05/27 03:58:12;;;;;;;2.03;0.98;;;13.40;63.20;;;;;;5100330;28;20049;-59
2022/05/27 04:00:38;;;;;;;5.32;1.00;;;13.40;63.20;;;;;;5101064;28;20035;-59
2022/05/27 04:03:04;;;;;;;1.83;1.00;;;13.40;63.40;;;;;;5105010;28;20042;-59
2022/05/27 04:05:30;;;;;;;3.13;1.55;;;13.40;63.50;;;;;;5100637;28;20020;-59
2022/05/27 04:07:56;;;;;;;1.77;1.10;;;13.40;63.70;;;;;;5094817;28;20028;-59
2022/05/27 04:10:22;;;;;;;1.77;0.90;;;13.40;63.80;;;;;;5108012;28;20032;-59
2022/05/27 04:12:48;;;;;;;1.80;0.98;;;13.50;63.90;;;;;;5097586;28;20079;-58
2022/05/27 04:15:14;;;;;;;2.83;1.10;;;13.50;63.90;;;;;;5100640;28;20040;-59
2022/05/27 04:17:41;;;;;;;3.85;0.93;;;13.60;64.00;;;;;;5100820;28;20028;-58
2022/05/27 04:20:15;;;;;;;1.77;1.00;;;13.60;64.00;;;;;;5103552;28;20020;-59
2022/05/27 04:22:41;;;;;;;0.85;0.80;;;13.60;64.60;;;;;;5097744;28;20070;-59
2022/05/27 04:25:08;;;;;;;2.10;1.02;;;13.60;64.20;;;;;;5092475;28;20043;-61
2022/05/27 04:27:34;;;;;;;1.40;0.85;;;13.70;64.50;;;;;;5097115;28;20055;-59
2022/05/27 04:30:00;;;;;;;3.08;1.05;;;13.80;64.50;;;;;;5096724;28;20032;-59
2022/05/27 04:32:26;;;;;;;2.65;1.00;;;13.80;64.70;;;;;;5100599;28;20539;-59
2022/05/27 04:34:53;;;;;;;2.42;0.95;;;13.90;64.80;;;;;;5100606;28;20403;-59
2022/05/27 04:37:20;;;;;;;4.20;1.20;;;13.90;64.90;;;;;;5102225;28;20028;-59
2022/05/27 04:39:45;;;;;;;3.13;1.00;;;13.90;64.80;;;;;;5101012;28;20044;-59
2022/05/27 04:42:12;;;;;;;1.85;1.05;;;14.00;64.70;;;;;;5089765;28;20039;-60
2022/05/27 04:44:38;;;;;;;2.22;1.20;;;14.00;64.70;;;;;;5098898;28;20028;-61
2022/05/27 04:47:04;;;;;;;6.55;1.10;;;14.10;64.80;;;;;;5097761;28;20521;-59
2022/05/27 04:52:14;;;;;;;4.55;1.00;;;14.20;64.70;;;;;;5107864;28;20099;-59
2022/05/27 04:54:40;;;;;;;2.47;0.98;;;14.30;64.40;;;;;;5105259;28;20032;-59
2022/05/27 04:57:06;;;;;;;1.88;1.00;;;14.30;64.40;;;;;;5100653;28;20027;-59
2022/05/27 04:59:36;;;;;;;1.67;1.30;;;14.40;64.30;;;;;;5102900;28;20038;-59
2022/05/27 05:02:05;;;;;;;2.42;1.17;;;14.40;64.30;;;;;;5094526;28;20028;-59
2022/05/27 05:04:31;;;;;;;2.70;1.10;;;14.50;64.60;;;;;;5094450;28;20024;-60
2022/05/27 05:07:07;;;;;;;3.30;1.33;;;14.60;64.70;;;;;;5100581;28;20043;-59
2022/05/27 05:09:38;;;;;;;2.08;1.00;;;14.70;65.40;;;;;;5102492;28;20020;-59
2022/05/27 05:12:05;;;;;;;2.08;1.10;;;14.70;64.90;;;;;;5097839;28;20057;-59
2022/05/27 05:14:31;;;;;;;1.50;1.20;;;14.80;64.90;;;;;;5099521;28;20028;-60
2022/05/27 05:16:56;;;;;;;2.58;1.40;;;14.90;64.80;;;;;;5104412;28;20125;-59
2022/05/27 05:19:22;;;;;;;3.38;1.40;;;15.10;64.80;;;;;;5113298;28;20049;-59
2022/05/27 05:21:47;;;;;;;1.75;1.00;;;15.20;64.80;;;;;;5108394;28;20025;-59
2022/05/27 05:24:13;;;;;;;5.53;1.27;;;15.30;64.80;;;;;;5101034;28;20070;-59
2022/05/27 05:26:39;;;;;;;2.42;1.20;;;15.50;64.70;;;;;;5102701;28;20038;-59
2022/05/27 05:29:06;;;;;;;4.60;1.20;;;15.60;64.40;;;;;;5105809;28;20076;-60
2022/05/27 05:31:32;;;;;;;2.35;1.13;;;15.70;64.20;;;;;;5109582;28;20024;-59
2022/05/27 05:33:59;;;;;;;4.90;1.45;;;15.90;64.10;;;;;;5104418;28;20028;-59
2022/05/27 05:36:26;;;;;;;4.57;1.13;;;16.10;63.90;;;;;;5114884;28;20024;-59
2022/05/27 05:38:52;;;;;;;2.25;1.20;;;16.20;63.70;;;;;;5104551;28;20031;-59
2022/05/27 05:41:26;;;;;;;2.13;1.27;;;16.40;63.70;;;;;;5098886;28;20027;-59
2022/05/27 05:43:52;;;;;;;3.97;1.02;;;16.60;64.10;;;;;;5103888;28;20028;-59
2022/05/27 05:46:18;;;;;;;1.77;0.95;;;16.70;63.50;;;;;;5105289;28;20036;-59
2022/05/27 05:48:44;;;;;;;2.75;1.10;;;16.90;63.40;;;;;;5101840;28;20038;-59
2022/05/27 05:51:09;;;;;;;1.58;1.20;;;17.10;63.10;;;;;;5099149;28;20032;-60
2022/05/27 05:53:35;;;;;;;2.92;1.02;;;17.20;62.60;;;;;;5096556;28;20040;-59
2022/05/27 05:56:00;;;;;;;2.97;0.90;;;17.50;62.20;;;;;;5113610;28;20031;-60
2022/05/27 05:58:26;;;;;;;4.97;1.00;;;17.60;61.80;;;;;;5109239;28;20028;-58
2022/05/27 06:00:52;;;;;;;2.17;1.00;;;17.80;61.40;;;;;;5100479;28;20024;-59
2022/05/27 06:03:18;;;;;;;3.10;1.10;;;17.90;61.00;;;;;;5107565;28;20085;-59
2022/05/27 06:05:43;;;;;;;5.07;0.98;;;18.10;60.60;;;;;;5105907;28;20035;-59
2022/05/27 06:08:10;;;;;;;3.03;1.10;;;18.20;60.00;;;;;;5111429;28;20054;-60
2022/05/27 06:10:36;;;;;;;2.38;0.95;;;18.40;59.60;;;;;;5101547;28;20027;-60
2022/05/27 06:13:02;;;;;;;1.95;1.08;;;18.50;59.30;;;;;;5113291;28;20023;-61
2022/05/27 06:15:28;;;;;;;3.25;1.10;;;18.60;58.90;;;;;;5101014;28;20032;-60
2022/05/27 06:17:53;;;;;;;2.05;0.98;;;18.70;58.90;;;;;;5102464;28;20024;-62
2022/05/27 06:20:19;;;;;;;3.35;1.00;;;18.80;58.70;;;;;;5099519;28;20024;-59
2022/05/27 06:22:46;;;;;;;2.17;0.98;;;18.90;58.30;;;;;;5095887;28;20053;-60
2022/05/27 06:25:12;;;;;;;3.20;1.30;;;19.00;58.20;;;;;;5097656;28;20054;-60
2022/05/27 06:27:38;;;;;;;2.95;1.10;;;19.10;57.90;;;;;;5104275;28;20028;-60
2022/05/27 06:35:34;;;;;;;1.77;1.00;;;19.40;57.10;;;;;;5092478;28;20058;-61
2022/05/27 06:37:59;;;;;;;2.28;1.30;;;19.40;56.90;;;;;;5096263;28;20028;-60
2022/05/27 06:40:25;;;;;;;2.45;0.80;;;19.40;56.80;;;;;;5100619;28;20031;-61
2022/05/27 06:42:51;;;;;;;2.30;1.10;;;19.40;56.70;;;;;;5097244;28;20492;-61
2022/05/27 06:45:17;;;;;;;1.67;0.90;;;19.30;56.40;;;;;;5096700;28;20463;-59
2022/05/27 06:47:43;;;;;;;1.73;0.90;;;19.30;56.40;;;;;;5109701;28;20092;-60
2022/05/27 06:50:09;;;;;;;2.28;1.00;;;19.30;56.40;;;;;;5097902;28;20142;-60
2022/05/27 06:52:36;;;;;;;1.92;1.05;;;19.30;56.70;;;;;;5096607;28;20020;-60
2022/05/27 06:55:03;;;;;;;5.28;1.17;;;19.20;56.60;;;;;;5106959;28;20042;-60
2022/05/27 06:57:28;;;;;;;3.35;1.10;;;19.30;56.30;;;;;;5099876;28;20047;-59
2022/05/27 06:59:54;;;;;;;2.10;1.08;;;19.30;56.20;;;;;;5095901;28;20107;-60
2022/05/27 07:02:22;;;;;;;1.55;0.88;;;19.30;56.30;;;;;;5104902;28;20024;-60
2022/05/27 07:04:48;;;;;;;2.67;1.30;;;19.30;56.20;;;;;;5091195;28;20032;-59
2022/05/27 07:07:14;;;;;;;2.70;1.27;;;19.30;56.20;;;;;;5105788;28;20024;-60
2022/05/27 07:09:39;;;;;;;4.95;1.08;;;19.30;56.20;;;;;;5099868;28;20046;-62
2022/05/27 07:12:08;;;;;;;4.15;1.13;;;19.20;56.00;;;;;;5103295;28;20020;-59
2022/05/27 07:14:34;;;;;;;3.67;1.52;;;19.20;56.20;;;;;;5096262;28;20036;-58
2022/05/27 07:17:00;;;;;;;3.92;1.20;;;19.10;56.30;;;;;;5091704;28;20032;-60
2022/05/27 07:19:26;;;;;;;6.82;1.30;;;19.10;56.30;;;;;;5096719;28;20024;-60
2022/05/27 07:21:55;;;;;;;2.83;1.27;;;19.10;56.20;;;;;;5101168;28;20032;-60
2022/05/27 07:24:22;;;;;;;2.60;1.40;;;19.10;56.30;;;;;;5105817;28;20107;-59
2022/05/27 07:26:48;;;;;;;3.47;1.40;;;19.10;56.40;;;;;;5097013;28;20097;-60
2022/05/27 07:29:14;;;;;;;6.80;1.88;;;19.10;57.30;;;;;;5096977;28;20032;-60
2022/05/27 07:31:42;;;;;;;2.83;1.35;;;19.10;56.40;;;;;;5096531;28;20036;-61
2022/05/27 07:34:08;;;;;;;3.05;1.40;;;19.10;56.10;;;;;;5099407;28;20040;-59
2022/05/27 07:36:35;;;;;;;3.20;1.48;;;19.10;56.10;;;;;;5099598;28;20039;-60
2022/05/27 07:39:00;;;;;;;5.68;1.30;;;19.00;56.10;;;;;;5102475;28;20046;-60
2022/05/27 07:41:27;;;;;;;2.95;1.30;;;19.00;56.20;;;;;;5099091;28;20055;-59
2022/05/27 07:43:54;;;;;;;5.93;1.70;;;19.00;56.10;;;;;;5099714;28;20081;-60
2022/05/27 07:46:22;;;;;;;3.47;1.38;;;19.00;56.10;;;;;;5105385;28;20092;-59
2022/05/27 07:48:47;;;;;;;2.45;1.15;;;19.00;56.10;;;;;;5090565;28;20457;-59
2022/05/27 07:51:13;;;;;;;1.63;1.20;;;19.00;55.80;;;;;;5097819;28;20031;-60
2022/05/27 07:53:39;;;;;;;2.63;1.00;;;19.00;55.70;;;;;;5100157;28;20584;-59
2022/05/27 07:56:10;;;;;;;2.45;1.20;;;18.90;55.90;;;;;;5106858;28;20484;-61
2022/05/27 07:58:36;;;;;;;2.55;1.20;;;18.90;56.10;;;;;;5095459;28;20029;-59
2022/05/27 08:01:03;;;;;;;2.75;1.15;;;19.00;56.30;;;;;;5104190;28;20036;-59
2022/05/27 08:03:29;;;;;;;2.50;1.10;;;19.00;56.30;;;;;;5100871;28;20032;-61
2022/05/27 08:05:55;;;;;;;3.15;1.10;;;19.10;56.30;;;;;;5105281;28;20028;-60
2022/05/27 08:08:22;;;;;;;4.88;1.20;;;19.10;56.30;;;;;;5093837;28;20484;-59
2022/05/27 08:10:48;;;;;;;4.90;1.10;;;19.20;56.20;;;;;;5101407;28;20070;-59
2022/05/27 08:13:14;;;;;;;3.60;1.10;;;19.30;56.20;;;;;;5106430;28;20028;-59
2022/05/27 08:15:40;;;;;;;3.63;1.50;;;19.30;55.90;;;;;;5094847;28;20089;-59
2022/05/27 08:18:06;;;;;;;4.57;1.00;;;19.40;55.60;;;;;;5098624;28;20035;-59
2022/05/27 08:20:34;;;;;;;3.78;1.35;;;19.40;55.60;;;;;;5104771;28;20035;-59
2022/05/27 08:23:00;;;;;;;1.42;1.00;;;19.40;55.60;;;;;;5101900;28;20060;-61
2022/05/27 08:25:27;;;;;;;2.70;1.20;;;19.40;55.50;;;;;;5099276;28;20031;-60
2022/05/27 08:27:54;;;;;;;3.67;1.55;;;19.40;55.70;;;;;;5090710;28;20029;-59
2022/05/27 08:30:30;;;;;;;1.85;0.95;;;19.40;55.70;;;;;;5101432;28;20020;-60
2022/05/27 08:32:56;;;;;;;2.35;1.20;;;19.40;55.80;;;;;;5093614;28;20016;-60
2022/05/27 08:38:13;;;;;;;2.28;1.27;;;19.50;56.00;;;;;;5105130;28;20278;-59
2022/05/27 08:40:49;;;;;;;2.05;0.90;;;19.60;55.70;;;;;;5096892;28;20029;-59
2022/05/27 08:43:31;;;;;;;3.58;1.30;;;19.70;55.70;;;;;;5107603;28;20084;-59
2022/05/27 08:46:26;;;;;;;1.90;1.05;;;19.70;55.60;;;;;;5090123;28;20021;-59
2022/05/27 08:48:57;;;;;;;2.85;1.10;;;19.80;55.50;;;;;;5097514;28;20050;-59
2022/05/27 08:51:56;;;;;;;1.73;1.20;;;19.90;55.10;;;;;;5107823;28;20107;-61
2022/05/27 08:54:32;;;;;;;2.55;1.10;;;19.90;54.90;;;;;;5101281;28;20099;-60
2022/05/27 09:00:06;;;;;;;23.30;2.58;;;20.00;54.30;;;;;;5095817;28;20110;-60
2022/05/27 09:02:50;;;;;;;7.47;1.63;;;20.00;54.00;;;;;;5101946;28;20031;-59
2022/05/27 09:05:32;;;;;;;3.03;1.13;;;20.00;54.30;;;;;;5093447;28;20051;-61
2022/05/27 09:08:11;;;;;;;6.22;1.20;;;20.00;54.30;;;;;;5105474;28;20507;-60
2022/05/27 09:10:48;;;;;;;2.50;1.30;;;20.00;54.90;;;;;;5110946;28;20039;-60
2022/05/27 09:13:30;;;;;;;1.30;0.90;;;20.00;54.50;;;;;;5099824;28;20024;-60
2022/05/27 09:16:01;;;;;;;5.47;1.20;;;20.10;55.10;;;;;;5103055;28;20861;-62
2022/05/27 09:18:39;;;;;;;2.95;1.05;;;20.20;55.00;;;;;;5105474;28;20118;-60
2022/05/27 09:21:25;;;;;;;4.82;1.10;;;20.30;54.70;;;;;;5106194;28;20036;-60
2022/05/27 09:23:54;;;;;;;4.20;1.17;;;20.40;55.00;;;;;;5097161;28;20048;-60
2022/05/27 09:27:01;;;;;;;3.67;1.13;;;20.50;54.60;;;;;;5101849;28;20510;-59
2022/05/27 09:29:26;;;;;;;2.83;1.02;;;20.60;54.60;;;;;;5097615;28;20028;-59
2022/05/27 09:32:02;;;;;;;4.03;1.33;;;20.70;54.30;;;;;;5095948;28;20058;-60
2022/05/27 09:34:31;;;;;;;2.83;1.20;;;20.80;53.70;;;;;;5101008;28;20099;-60
2022/05/27 09:37:02;;;;;;;4.15;1.40;;;20.80;53.50;;;;;;5098536;28;20052;-60
2022/05/27 09:39:28;;;;;;;3.72;1.30;;;20.70;52.90;;;;;;5107317;28;20020;-60
2022/05/27 09:42:16;;;;;;;3.35;1.20;;;20.70;53.00;;;;;;5093712;28;20791;-59
2022/05/27 09:44:54;;;;;;;1.98;1.23;;;20.60;52.60;;;;;;5097146;28;20028;-59
2022/05/27 09:47:27;;;;;;;5.50;1.20;;;20.50;53.10;;;;;;5100035;28;20020;-60
2022/05/27 09:50:00;;;;;;;3.50;1.48;;;20.40;53.30;;;;;;5096191;28;20027;-60
2022/05/27 09:52:31;;;;;;;3.00;1.38;;;20.20;53.50;;;;;;5100733;28;20049;-60
2022/05/27 09:55:00;;;;;;;6.10;1.27;;;20.10;53.80;;;;;;5102766;28;20069;-59
2022/05/27 09:57:30;;;;;;;4.22;1.23;;;20.10;54.40;;;;;;5095514;28;20395;-59
2022/05/27 09:59:58;;;;;;;2.85;1.50;;;20.10;54.60;;;;;;5104868;28;20077;-59
2022/05/27 10:02:29;;;;;;;4.68;1.60;;;20.10;54.40;;;;;;5099815;28;20024;-59
2022/05/27 10:04:58;;;;;;;6.22;1.40;;;20.10;54.90;;;;;;5093370;28;20032;-59
2022/05/27 10:07:30;;;;;;;3.40;1.60;;;20.10;55.10;;;;;;5096302;28;20025;-60
2022/05/27 10:09:56;;;;;;;2.20;1.30;;;20.20;55.20;;;;;;5099477;28;20020;-59
2022/05/27 10:12:34;;;;;;;5.07;1.20;;;20.30;55.20;;;;;;5100453;28;20024;-60
2022/05/27 10:15:00;;;;;;;3.90;1.60;;;20.40;55.50;;;;;;5097920;28;20035;-60
2022/05/27 10:17:36;;;;;;;6.22;1.50;;;20.50;55.80;;;;;;5099193;28;20419;-60
2022/05/27 10:20:31;;;;;;;2.67;1.50;;;20.70;55.30;;;;;;5095845;28;20043;-60
2022/05/27 10:23:05;;;;;;;3.35;1.50;;;20.90;54.40;;;;;;5097245;28;20048;-59
2022/05/27 10:25:37;;;;;;;3.00;1.60;;;21.10;54.10;;;;;;5097325;28;20090;-60
2022/05/27 10:28:05;;;;;;;4.25;1.20;;;21.20;53.50;;;;;;5098474;28;20396;-60
2022/05/27 10:30:37;;;;;;;5.40;1.63;;;21.30;53.50;;;;;;5097172;28;20039;-60
2022/05/27 10:33:19;;;;;;;4.70;1.48;;;21.30;53.10;;;;;;5098880;28;20024;-59
2022/05/27 10:35:47;;;;;;;2.50;1.40;;;21.30;52.70;;;;;;5099283;28;20020;-60
2022/05/27 10:38:31;;;;;;;3.00;1.45;;;21.30;52.90;;;;;;5098842;28;20031;-60
2022/05/27 10:41:19;;;;;;;2.00;1.50;;;21.30;53.00;;;;;;5102429;28;20035;-61
2022/05/27 10:44:14;;;;;;;3.15;1.80;;;21.40;53.60;;;;;;5102200;28;20581;-60
2022/05/27 10:46:54;;;;;;;;;;;21.50;53.50;;;;;;5095387;28;20027;-60
2022/05/27 10:49:32;;;;;;;2.88;1.27;;;21.70;52.40;;;;;;5091873;28;19912;-61
2022/05/27 10:52:29;;;;;;;2.95;1.45;;;21.80;53.00;;;;;;5091976;28;20092;-61
2022/05/27 10:55:23;;;;;;;2.25;1.48;;;21.90;51.60;;;;;;5097629;28;20060;-59
2022/05/27 11:04:40;;;;;;;2.50;1.40;;;21.90;51.30;;;;;;5091079;28;20052;-59
2022/05/27 11:07:25;;;;;;;2.42;0.93;;;21.90;51.30;;;;;;5096726;28;20058;-60
2022/05/27 11:10:15;;;;;;;4.82;1.42;;;21.90;50.90;;;;;;5093525;28;20058;-59
2022/05/27 11:16:31;;;;;;;2.50;1.40;;;21.80;50.70;;;;;;5101729;28;20051;-60
2022/05/27 11:19:08;;;;;;;3.55;1.00;;;21.80;49.80;;;;;;5037320;28;20032;-61
2022/05/27 11:21:52;;;;;;;1.88;1.20;;;21.80;50.40;;;;;;5043584;28;20037;-60
2022/05/27 11:24:26;;;;;;;2.15;1.10;;;21.70;50.80;;;;;;5038803;28;20037;-60
2022/05/27 11:27:13;;;;;;;3.08;1.33;;;21.80;51.10;;;;;;4976552;28;20045;-60
2022/05/27 11:30:04;;;;;;;1.90;1.20;;;21.80;50.80;;;;;;5037259;28;20056;-60
2022/05/27 11:32:43;;;;;;;3.10;1.35;;;22.00;50.90;;;;;;5038004;28;20049;-60
2022/05/27 11:35:27;;;;;;;2.53;1.20;;;22.20;50.40;;;;;;5050066;28;20056;-60
2022/05/27 11:38:00;;;;;;;6.63;1.25;;;22.40;50.00;;;;;;5024614;28;20029;-60
2022/05/27 11:41:05;;;;;;;6.55;1.42;;;22.60;50.00;;;;;;5042495;28;20033;-60
2022/05/27 11:43:40;;;;;;;;;;;22.80;48.40;;;;;;5041524;28;20068;-61
2022/05/27 11:46:41;;;;;;;2.85;1.23;;;22.90;48.10;;;;;;5037750;28;19981;-61
2022/05/27 11:49:22;;;;;;;2.00;1.10;;;22.90;47.80;;;;;;5057265;28;21132;-60
2022/05/27 11:51:57;;;;;;;2.90;1.15;;;22.80;48.30;;;;;;5105063;28;20084;-60
2022/05/27 11:54:53;;;;;;;2.17;1.02;;;22.90;49.20;;;;;;5100107;28;20043;-60
2022/05/27 11:57:31;;;;;;;4.78;0.98;;;22.90;48.90;;;;;;5089516;28;20009;-60
2022/05/27 12:00:06;;;;;;;3.75;0.95;;;23.10;48.70;;;;;;5094259;28;20057;-60
2022/05/27 12:02:41;;;;;;;1.90;1.02;;;23.10;48.00;;;;;;5098671;28;20088;-60
2022/05/27 12:05:26;;;;;;;2.25;0.90;;;23.20;47.30;;;;;;5107197;28;20118;-61
2022/05/27 12:07:55;;;;;;;;;;;23.20;48.20;;;;;;5092891;28;20016;-60
2022/05/27 12:10:43;;;;;;;3.00;0.90;;;23.30;48.70;;;;;;5099530;28;19982;-60
2022/05/27 12:13:27;;;;;;;1.63;0.85;;;23.50;47.40;;;;;;5102468;28;20028;-60
2022/05/27 12:16:02;;;;;;;2.13;1.08;;;23.60;46.70;;;;;;5104563;28;20032;-60
2022/05/27 12:18:43;;;;;;;2.80;0.90;;;23.60;47.10;;;;;;5089700;28;20039;-60
2022/05/27 12:21:13;;;;;;;1.90;0.90;;;23.60;46.40;;;;;;5100483;28;20043;-60
2022/05/27 12:23:44;;;;;;;2.08;1.00;;;23.60;46.10;;;;;;5107101;28;20058;-60
2022/05/27 12:26:10;;;;;;;2.22;0.85;;;23.50;46.10;;;;;;5098676;28;20020;-60
2022/05/27 12:28:41;;;;;;;2.15;0.95;;;23.50;46.90;;;;;;5098867;28;20054;-61
2022/05/27 12:31:08;;;;;;;4.15;0.90;;;23.50;46.50;;;;;;5094395;28;20031;-62
2022/05/27 12:33:36;;;;;;;1.85;0.80;;;23.60;46.40;;;;;;5102796;28;20044;-60
2022/05/27 12:36:05;;;;;;;5.60;1.00;;;23.70;45.70;;;;;;5097433;28;20035;-62
2022/05/27 12:38:35;;;;;;;2.05;1.00;;;23.70;45.20;;;;;;5088547;28;20024;-60
2022/05/27 12:41:06;;;;;;;2.38;0.82;;;23.70;45.00;;;;;;5096051;28;20059;-60
2022/05/27 12:43:37;;;;;;;4.32;0.82;;;23.70;44.90;;;;;;5103705;28;20024;-60
2022/05/27 12:46:03;;;;;;;1.35;0.85;;;23.70;45.00;;;;;;5099029;28;20035;-60
2022/05/27 12:48:41;;;;;;;1.25;0.65;;;23.60;44.40;;;;;;5103699;28;20032;-60
2022/05/27 12:51:08;;;;;;;1.33;0.70;;;23.40;45.00;;;;;;5091085;28;20055;-61
2022/05/27 12:53:39;;;;;;;3.60;0.70;;;23.40;45.40;;;;;;5107711;28;20028;-61
2022/05/27 13:02:30;;;;;;;2.60;0.82;;;23.20;45.80;;;;;;5079696;28;20074;-60
2022/05/27 13:05:05;;;;;;;1.67;1.15;;;23.30;45.60;;;;;;5100818;28;20429;-61
2022/05/27 13:07:33;;;;;;;;;;;23.40;45.90;;;;;;5097479;28;20028;-61
2022/05/27 13:10:17;;;;;;;2.90;1.08;;;23.50;45.60;;;;;;5093682;28;19923;-60
2022/05/27 13:12:48;;;;;;;2.03;0.83;;;23.60;45.00;;;;;;5098206;28;20036;-61
2022/05/27 13:15:38;;;;;;;1.98;0.93;;;23.60;45.00;;;;;;5100991;28;20433;-60
2022/05/27 13:18:26;;;;;;;1.90;0.80;;;23.60;43.70;;;;;;5090838;28;20690;-60
2022/05/27 13:21:12;;;;;;;7.05;1.40;;;23.60;44.50;;;;;;5100458;28;20040;-60
2022/05/27 13:24:13;;;;;;;2.03;0.82;;;23.50;44.40;;;;;;5098429;28;20044;-60
2022/05/27 13:26:51;;;;;;;4.25;0.90;;;23.50;44.30;;;;;;5093111;28;20611;-61
2022/05/27 13:29:24;;;;;;;2.20;0.90;;;23.40;44.20;;;;;;5092085;28;20472;-60
2022/05/27 13:32:11;;;;;;;2.08;0.70;;;23.40;44.70;;;;;;5093454;28;20025;-60
2022/05/27 13:34:51;;;;;;;4.03;0.90;;;23.30;45.50;;;;;;5103803;28;20056;-61
2022/05/27 13:37:37;;;;;;;2.22;1.20;;;23.30;45.00;;;;;;5102582;28;20039;-60
2022/05/27 13:40:34;;;;;;;1.40;0.80;;;23.20;44.40;;;;;;5104891;28;20091;-62
2022/05/27 13:43:31;;;;;;;2.13;0.90;;;23.20;44.90;;;;;;5088812;28;20438;-60
2022/05/27 13:46:17;;;;;;;1.10;0.80;;;23.10;44.90;;;;;;5104026;28;20055;-61
2022/05/27 13:48:53;;;;;;;1.58;0.95;;;22.90;44.70;;;;;;5103019;28;20088;-60
2022/05/27 13:51:21;;;;;;;1.95;1.08;;;22.80;45.10;;;;;;5099752;28;20086;-61
2022/05/27 13:53:50;;;;;;;3.25;0.85;;;22.80;45.40;;;;;;5100976;28;20031;-61